sensor_id;sensor_type;location;lat;lon;timestamp;temperature;humidity
61201;DHT22;47065;52.898;6.992;2024-03-23T00:56:11;6.60;99.90
61201;DHT22;47065;52.898;6.992;2024-03-23T00:58:36;6.70;99.90
61201;DHT22;47065;52.898;6.992;2024-03-23T01:01:02;6.60;99.90
61201;DHT22;47065;52.898;6.992;2024-03-23T01:03:29;6.60;99.90
61201;DHT22;47065;52.898;6.992;2024-03-23T01:06:02;6.60;99.90
61201;DHT22;47065;52.898;6.992;2024-03-23T01:08:28;6.60;99.90
61201;DHT22;47065;52.898;6.992;2024-03-23T01:10:55;6.60;99.90
61201;DHT22;47065;52.898;6.992;2024-03-23T01:13:21;6.50;99.90
61201;DHT22;47065;52.898;6.992;2024-03-23T01:15:55;6.50;99.90
61201;DHT22;47065;52.898;6.992;2024-03-23T01:18:22;6.50;99.90
61201;DHT22;47065;52.898;6.992;2024-03-23T01:20:48;6.50;99.90
61201;DHT22;47065;52.898;6.992;2024-03-23T01:23:14;6.50;99.90
61201;DHT22;47065;52.898;6.992;2024-03-23T01:25:40;6.50;99.90
61201;DHT22;47065;52.898;6.992;2024-03-23T01:28:06;6.40;99.90
61201;DHT22;47065;52.898;6.992;2024-03-23T01:30:32;6.40;99.90
61201;DHT22;47065;52.898;6.992;2024-03-23T01:32:58;6.40;99.90
61201;DHT22;47065;52.898;6.992;2024-03-23T01:35:23;6.40;99.90
61201;DHT22;47065;52.898;6.992;2024-03-23T01:37:49;6.40;99.90
61201;DHT22;47065;52.898;6.992;2024-03-23T01:40:16;6.40;99.90
61201;DHT22;47065;52.898;6.992;2024-03-23T01:42:42;6.30;99.90
61201;DHT22;47065;52.898;6.992;2024-03-23T01:45:08;6.30;99.90
61201;DHT22;47065;52.898;6.992;2024-03-23T01:47:35;6.30;99.90
61201;DHT22;47065;52.898;6.992;2024-03-23T01:50:01;6.30;99.90
61201;DHT22;47065;52.898;6.992;2024-03-23T01:52:27;6.30;99.90
61201;DHT22;47065;52.898;6.992;2024-03-23T01:54:53;6.20;99.90
61201;DHT22;47065;52.898;6.992;2024-03-23T01:57:19;6.20;99.90
61201;DHT22;47065;52.898;6.992;2024-03-23T01:59:46;6.20;99.90
61201;DHT22;47065;52.898;6.992;2024-03-23T02:02:12;6.10;99.90
61201;DHT22;47065;52.898;6.992;2024-03-23T02:04:38;6.20;99.90
61201;DHT22;47065;52.898;6.992;2024-03-23T02:07:06;6.10;99.90
61201;DHT22;47065;52.898;6.992;2024-03-23T02:09:32;6.10;99.90
61201;DHT22;47065;52.898;6.992;2024-03-23T02:11:58;6.10;99.90
61201;DHT22;47065;52.898;6.992;2024-03-23T02:14:23;6.10;99.90
61201;DHT22;47065;52.898;6.992;2024-03-23T02:16:49;6.00;99.90
61201;DHT22;47065;52.898;6.992;2024-03-23T02:19:15;6.00;99.90
61201;DHT22;47065;52.898;6.992;2024-03-23T02:21:40;6.00;99.90
61201;DHT22;47065;52.898;6.992;2024-03-23T02:24:06;6.00;99.90
61201;DHT22;47065;52.898;6.992;2024-03-23T02:26:32;5.90;99.90
61201;DHT22;47065;52.898;6.992;2024-03-23T02:28:57;5.90;99.90
61201;DHT22;47065;52.898;6.992;2024-03-23T02:31:23;5.90;99.90
61201;DHT22;47065;52.898;6.992;2024-03-23T02:33:48;5.90;99.90
61201;DHT22;47065;52.898;6.992;2024-03-23T02:36:14;5.80;99.90
61201;DHT22;47065;52.898;6.992;2024-03-23T02:38:39;5.90;99.90
61201;DHT22;47065;52.898;6.992;2024-03-23T02:41:05;5.80;99.90
61201;DHT22;47065;52.898;6.992;2024-03-23T02:43:31;5.80;99.90
61201;DHT22;47065;52.898;6.992;2024-03-23T02:45:57;5.80;99.90
61201;DHT22;47065;52.898;6.992;2024-03-23T02:48:23;5.80;99.90
61201;DHT22;47065;52.898;6.992;2024-03-23T02:50:49;5.80;99.90
61201;DHT22;47065;52.898;6.992;2024-03-23T02:53:15;5.70;99.90
61201;DHT22;47065;52.898;6.992;2024-03-23T02:55:41;5.70;99.90
61201;DHT22;47065;52.898;6.992;2024-03-23T02:58:06;5.70;99.90
61201;DHT22;47065;52.898;6.992;2024-03-23T03:00:32;5.60;99.90
61201;DHT22;47065;52.898;6.992;2024-03-23T03:02:58;5.60;99.90
61201;DHT22;47065;52.898;6.992;2024-03-23T03:05:23;5.60;99.90
61201;DHT22;47065;52.898;6.992;2024-03-23T03:07:49;5.60;99.90
61201;DHT22;47065;52.898;6.992;2024-03-23T03:10:14;5.50;99.90
61201;DHT22;47065;52.898;6.992;2024-03-23T03:12:41;5.50;99.90
61201;DHT22;47065;52.898;6.992;2024-03-23T03:15:08;5.50;99.90
61201;DHT22;47065;52.898;6.992;2024-03-23T03:17:34;5.40;99.90
61201;DHT22;47065;52.898;6.992;2024-03-23T03:20:00;5.40;99.90
61201;DHT22;47065;52.898;6.992;2024-03-23T03:22:26;5.40;99.90
61201;DHT22;47065;52.898;6.992;2024-03-23T03:24:51;5.40;99.90
61201;DHT22;47065;52.898;6.992;2024-03-23T03:27:17;5.40;99.90
61201;DHT22;47065;52.898;6.992;2024-03-23T03:29:43;5.40;99.90
61201;DHT22;47065;52.898;6.992;2024-03-23T03:32:08;5.30;99.90
61201;DHT22;47065;52.898;6.992;2024-03-23T03:34:34;5.30;99.90
61201;DHT22;47065;52.898;6.992;2024-03-23T03:37:00;5.30;99.90
61201;DHT22;47065;52.898;6.992;2024-03-23T03:39:25;5.30;99.90
61201;DHT22;47065;52.898;6.992;2024-03-23T03:41:51;5.30;99.90
61201;DHT22;47065;52.898;6.992;2024-03-23T03:44:17;5.20;99.90
61201;DHT22;47065;52.898;6.992;2024-03-23T03:46:43;5.20;99.90
61201;DHT22;47065;52.898;6.992;2024-03-23T03:49:09;5.20;99.90
61201;DHT22;47065;52.898;6.992;2024-03-23T03:51:34;5.20;99.90
61201;DHT22;47065;52.898;6.992;2024-03-23T03:54:00;5.10;99.90
61201;DHT22;47065;52.898;6.992;2024-03-23T03:56:26;5.10;99.90
61201;DHT22;47065;52.898;6.992;2024-03-23T03:58:52;5.10;99.90
61201;DHT22;47065;52.898;6.992;2024-03-23T04:01:18;5.10;99.90
61201;DHT22;47065;52.898;6.992;2024-03-23T04:03:43;5.10;99.90
61201;DHT22;47065;52.898;6.992;2024-03-23T04:06:11;5.00;99.90
61201;DHT22;47065;52.898;6.992;2024-03-23T04:08:37;5.10;99.90
61201;DHT22;47065;52.898;6.992;2024-03-23T04:11:03;5.10;99.90
61201;DHT22;47065;52.898;6.992;2024-03-23T04:13:28;5.00;99.90
61201;DHT22;47065;52.898;6.992;2024-03-23T04:15:55;5.00;99.90
61201;DHT22;47065;52.898;6.992;2024-03-23T04:18:21;5.00;99.90
61201;DHT22;47065;52.898;6.992;2024-03-23T04:20:51;4.90;99.90
61201;DHT22;47065;52.898;6.992;2024-03-23T04:23:16;4.90;99.90
61201;DHT22;47065;52.898;6.992;2024-03-23T04:25:42;4.90;99.90
61201;DHT22;47065;52.898;6.992;2024-03-23T04:28:08;4.90;99.90
61201;DHT22;47065;52.898;6.992;2024-03-23T04:30:34;4.90;99.90
61201;DHT22;47065;52.898;6.992;2024-03-23T04:32:59;4.90;99.90
61201;DHT22;47065;52.898;6.992;2024-03-23T04:35:26;4.90;99.90
61201;DHT22;47065;52.898;6.992;2024-03-23T04:37:53;4.90;99.90
61201;DHT22;47065;52.898;6.992;2024-03-23T04:40:19;4.90;99.90
61201;DHT22;47065;52.898;6.992;2024-03-23T04:42:44;4.90;99.90
61201;DHT22;47065;52.898;6.992;2024-03-23T04:45:10;4.90;99.90
61201;DHT22;47065;52.898;6.992;2024-03-23T04:47:39;4.80;99.90
61201;DHT22;47065;52.898;6.992;2024-03-23T04:50:05;4.80;99.90
61201;DHT22;47065;52.898;6.992;2024-03-23T04:52:30;4.80;99.90
61201;DHT22;47065;52.898;6.992;2024-03-23T04:54:56;4.80;99.90
61201;DHT22;47065;52.898;6.992;2024-03-23T04:57:22;4.80;99.90
61201;DHT22;47065;52.898;6.992;2024-03-23T04:59:48;4.80;99.90
61201;DHT22;47065;52.898;6.992;2024-03-23T05:02:14;4.80;99.90
61201;DHT22;47065;52.898;6.992;2024-03-23T05:04:40;4.70;99.90
61201;DHT22;47065;52.898;6.992;2024-03-23T05:07:08;4.70;99.90
61201;DHT22;47065;52.898;6.992;2024-03-23T05:09:34;4.80;99.90
61201;DHT22;47065;52.898;6.992;2024-03-23T05:12:00;4.70;99.90
61201;DHT22;47065;52.898;6.992;2024-03-23T05:14:26;4.70;99.90
61201;DHT22;47065;52.898;6.992;2024-03-23T05:16:52;4.70;99.90
61201;DHT22;47065;52.898;6.992;2024-03-23T05:19:18;4.70;99.90
61201;DHT22;47065;52.898;6.992;2024-03-23T05:21:44;4.70;99.90
61201;DHT22;47065;52.898;6.992;2024-03-23T05:24:10;4.60;99.90
61201;DHT22;47065;52.898;6.992;2024-03-23T05:26:35;4.70;99.90
61201;DHT22;47065;52.898;6.992;2024-03-23T05:29:02;4.60;99.90
61201;DHT22;47065;52.898;6.992;2024-03-23T05:31:30;4.60;99.90
61201;DHT22;47065;52.898;6.992;2024-03-23T05:33:56;4.60;99.90
61201;DHT22;47065;52.898;6.992;2024-03-23T05:36:22;4.60;99.90
61201;DHT22;47065;52.898;6.992;2024-03-23T05:38:48;4.60;99.90
61201;DHT22;47065;52.898;6.992;2024-03-23T05:41:13;4.60;99.90
61201;DHT22;47065;52.898;6.992;2024-03-23T05:43:39;4.50;99.90
61201;DHT22;47065;52.898;6.992;2024-03-23T05:46:05;4.50;99.90
61201;DHT22;47065;52.898;6.992;2024-03-23T05:48:31;4.50;99.90
61201;DHT22;47065;52.898;6.992;2024-03-23T05:50:57;4.50;99.90
61201;DHT22;47065;52.898;6.992;2024-03-23T05:53:24;4.50;99.90
61201;DHT22;47065;52.898;6.992;2024-03-23T05:55:50;4.50;99.90
61201;DHT22;47065;52.898;6.992;2024-03-23T05:58:19;4.50;99.90
61201;DHT22;47065;52.898;6.992;2024-03-23T06:00:45;4.50;99.90
61201;DHT22;47065;52.898;6.992;2024-03-23T06:03:11;4.50;99.90
61201;DHT22;47065;52.898;6.992;2024-03-23T06:05:38;4.50;99.90
61201;DHT22;47065;52.898;6.992;2024-03-23T06:08:04;4.50;99.90
61201;DHT22;47065;52.898;6.992;2024-03-23T06:10:30;4.50;99.90
61201;DHT22;47065;52.898;6.992;2024-03-23T06:12:57;4.60;99.90
61201;DHT22;47065;52.898;6.992;2024-03-23T06:15:24;4.50;99.90
61201;DHT22;47065;52.898;6.992;2024-03-23T06:17:49;4.60;99.90
61201;DHT22;47065;52.898;6.992;2024-03-23T06:20:15;4.60;99.90
61201;DHT22;47065;52.898;6.992;2024-03-23T06:22:41;4.60;99.90
61201;DHT22;47065;52.898;6.992;2024-03-23T06:25:07;4.60;99.90
61201;DHT22;47065;52.898;6.992;2024-03-23T06:27:33;4.60;99.90
61201;DHT22;47065;52.898;6.992;2024-03-23T06:29:59;4.60;99.90
61201;DHT22;47065;52.898;6.992;2024-03-23T06:32:25;4.70;99.90
61201;DHT22;47065;52.898;6.992;2024-03-23T06:34:50;4.70;99.90
61201;DHT22;47065;52.898;6.992;2024-03-23T06:37:16;4.70;99.90
61201;DHT22;47065;52.898;6.992;2024-03-23T06:39:42;4.80;99.90
61201;DHT22;47065;52.898;6.992;2024-03-23T06:42:07;4.80;99.90
61201;DHT22;47065;52.898;6.992;2024-03-23T06:44:33;4.90;99.90
61201;DHT22;47065;52.898;6.992;2024-03-23T06:46:59;5.00;99.90
61201;DHT22;47065;52.898;6.992;2024-03-23T06:49:25;5.10;99.90
61201;DHT22;47065;52.898;6.992;2024-03-23T06:51:51;5.20;99.90
61201;DHT22;47065;52.898;6.992;2024-03-23T06:54:19;5.20;99.90
61201;DHT22;47065;52.898;6.992;2024-03-23T06:56:45;5.30;99.90
61201;DHT22;47065;52.898;6.992;2024-03-23T06:59:11;5.40;99.90
61201;DHT22;47065;52.898;6.992;2024-03-23T07:01:36;5.40;99.90
61201;DHT22;47065;52.898;6.992;2024-03-23T07:04:02;5.40;99.90
61201;DHT22;47065;52.898;6.992;2024-03-23T07:06:29;5.50;99.90
61201;DHT22;47065;52.898;6.992;2024-03-23T07:08:55;5.40;99.90
61201;DHT22;47065;52.898;6.992;2024-03-23T07:11:22;5.40;99.90
61201;DHT22;47065;52.898;6.992;2024-03-23T07:13:51;5.40;99.90
61201;DHT22;47065;52.898;6.992;2024-03-23T07:16:17;5.30;99.90
61201;DHT22;47065;52.898;6.992;2024-03-23T07:18:43;5.30;99.90
61201;DHT22;47065;52.898;6.992;2024-03-23T07:21:09;5.30;99.90
61201;DHT22;47065;52.898;6.992;2024-03-23T07:23:34;5.30;99.90
61201;DHT22;47065;52.898;6.992;2024-03-23T07:26:02;5.30;99.90
61201;DHT22;47065;52.898;6.992;2024-03-23T07:28:28;5.40;99.90
61201;DHT22;47065;52.898;6.992;2024-03-23T07:31:10;5.40;99.90
61201;DHT22;47065;52.898;6.992;2024-03-23T07:33:37;5.50;99.90
61201;DHT22;47065;52.898;6.992;2024-03-23T07:36:04;5.60;99.90
61201;DHT22;47065;52.898;6.992;2024-03-23T07:38:31;5.60;99.90
61201;DHT22;47065;52.898;6.992;2024-03-23T07:41:08;5.70;99.90
61201;DHT22;47065;52.898;6.992;2024-03-23T07:43:34;5.70;99.90
61201;DHT22;47065;52.898;6.992;2024-03-23T07:46:00;5.70;99.90
61201;DHT22;47065;52.898;6.992;2024-03-23T07:48:27;5.70;99.90
61201;DHT22;47065;52.898;6.992;2024-03-23T07:51:01;5.70;99.90
61201;DHT22;47065;52.898;6.992;2024-03-23T07:53:28;5.70;99.90
61201;DHT22;47065;52.898;6.992;2024-03-23T07:56:02;5.80;99.90
61201;DHT22;47065;52.898;6.992;2024-03-23T07:58:28;5.80;99.90
61201;DHT22;47065;52.898;6.992;2024-03-23T08:00:55;5.80;99.90
61201;DHT22;47065;52.898;6.992;2024-03-23T08:03:21;6.00;99.90
61201;DHT22;47065;52.898;6.992;2024-03-23T08:05:46;6.00;99.90
61201;DHT22;47065;52.898;6.992;2024-03-23T08:08:12;6.10;99.90
61201;DHT22;47065;52.898;6.992;2024-03-23T08:10:51;6.10;99.90
61201;DHT22;47065;52.898;6.992;2024-03-23T08:13:17;6.00;99.90
61201;DHT22;47065;52.898;6.992;2024-03-23T08:15:43;5.90;99.90
61201;DHT22;47065;52.898;6.992;2024-03-23T08:18:13;5.90;99.90
61201;DHT22;47065;52.898;6.992;2024-03-23T08:20:39;5.80;99.90
61201;DHT22;47065;52.898;6.992;2024-03-23T08:23:08;5.70;99.90
61201;DHT22;47065;52.898;6.992;2024-03-23T08:25:34;5.70;99.90
61201;DHT22;47065;52.898;6.992;2024-03-23T08:28:01;5.70;99.90
61201;DHT22;47065;52.898;6.992;2024-03-23T08:30:28;5.70;99.90
61201;DHT22;47065;52.898;6.992;2024-03-23T08:32:53;5.80;99.90
61201;DHT22;47065;52.898;6.992;2024-03-23T08:35:19;5.80;99.90
61201;DHT22;47065;52.898;6.992;2024-03-23T08:37:45;5.80;99.90
61201;DHT22;47065;52.898;6.992;2024-03-23T08:40:11;5.80;99.90
61201;DHT22;47065;52.898;6.992;2024-03-23T08:42:36;5.80;99.90
61201;DHT22;47065;52.898;6.992;2024-03-23T08:45:02;5.70;99.90
61201;DHT22;47065;52.898;6.992;2024-03-23T08:47:28;5.70;99.90
61201;DHT22;47065;52.898;6.992;2024-03-23T08:49:54;5.70;99.90
61201;DHT22;47065;52.898;6.992;2024-03-23T08:52:20;5.70;99.90
61201;DHT22;47065;52.898;6.992;2024-03-23T08:54:48;5.70;99.90
61201;DHT22;47065;52.898;6.992;2024-03-23T08:57:14;5.60;99.90
61201;DHT22;47065;52.898;6.992;2024-03-23T08:59:39;5.60;99.90
61201;DHT22;47065;52.898;6.992;2024-03-23T09:02:05;5.80;99.90
61201;DHT22;47065;52.898;6.992;2024-03-23T09:04:31;6.50;99.90
61201;DHT22;47065;52.898;6.992;2024-03-23T09:06:57;7.50;99.90
61201;DHT22;47065;52.898;6.992;2024-03-23T09:09:24;7.80;99.90
61201;DHT22;47065;52.898;6.992;2024-03-23T09:11:49;7.90;99.90
61201;DHT22;47065;52.898;6.992;2024-03-23T09:14:15;7.90;99.90
61201;DHT22;47065;52.898;6.992;2024-03-23T09:16:41;8.60;99.90
61201;DHT22;47065;52.898;6.992;2024-03-23T09:19:06;9.30;99.90
61201;DHT22;47065;52.898;6.992;2024-03-23T09:21:33;9.70;99.90
61201;DHT22;47065;52.898;6.992;2024-03-23T09:23:58;10.30;99.90
61201;DHT22;47065;52.898;6.992;2024-03-23T09:26:24;11.30;99.90
61201;DHT22;47065;52.898;6.992;2024-03-23T09:28:49;12.20;99.90
61201;DHT22;47065;52.898;6.992;2024-03-23T09:31:15;13.20;99.90
61201;DHT22;47065;52.898;6.992;2024-03-23T09:33:41;14.10;99.90
61201;DHT22;47065;52.898;6.992;2024-03-23T09:36:07;14.80;99.90
61201;DHT22;47065;52.898;6.992;2024-03-23T09:38:33;15.10;99.90
61201;DHT22;47065;52.898;6.992;2024-03-23T09:40:59;14.80;99.90
61201;DHT22;47065;52.898;6.992;2024-03-23T09:43:25;14.10;99.90
61201;DHT22;47065;52.898;6.992;2024-03-23T09:45:51;13.30;99.90
61201;DHT22;47065;52.898;6.992;2024-03-23T09:48:17;12.50;99.90
61201;DHT22;47065;52.898;6.992;2024-03-23T09:50:44;11.70;99.90
61201;DHT22;47065;52.898;6.992;2024-03-23T09:53:14;11.10;99.90
61201;DHT22;47065;52.898;6.992;2024-03-23T09:55:41;10.40;99.90
61201;DHT22;47065;52.898;6.992;2024-03-23T09:58:12;9.90;99.90
61201;DHT22;47065;52.898;6.992;2024-03-23T10:00:38;9.40;99.90
61201;DHT22;47065;52.898;6.992;2024-03-23T10:03:04;9.00;99.90
61201;DHT22;47065;52.898;6.992;2024-03-23T10:05:32;8.70;99.90
61201;DHT22;47065;52.898;6.992;2024-03-23T10:08:16;8.40;99.90
61201;DHT22;47065;52.898;6.992;2024-03-23T10:10:43;8.20;99.90
61201;DHT22;47065;52.898;6.992;2024-03-23T10:13:09;8.20;99.90
61201;DHT22;47065;52.898;6.992;2024-03-23T10:15:36;8.20;99.90
61201;DHT22;47065;52.898;6.992;2024-03-23T10:18:20;8.30;99.90
61201;DHT22;47065;52.898;6.992;2024-03-23T10:23:36;8.20;99.90
61201;DHT22;47065;52.898;6.992;2024-03-23T10:26:22;8.10;99.90
61201;DHT22;47065;52.898;6.992;2024-03-23T10:28:58;8.00;99.90
61201;DHT22;47065;52.898;6.992;2024-03-23T10:31:25;7.90;99.90
61201;DHT22;47065;52.898;6.992;2024-03-23T10:33:50;7.70;99.90
61201;DHT22;47065;52.898;6.992;2024-03-23T10:36:19;7.40;99.90
61201;DHT22;47065;52.898;6.992;2024-03-23T10:38:46;7.10;99.90
61201;DHT22;47065;52.898;6.992;2024-03-23T10:41:12;6.90;99.90
61201;DHT22;47065;52.898;6.992;2024-03-23T10:43:39;6.60;99.90
61201;DHT22;47065;52.898;6.992;2024-03-23T10:46:05;6.40;99.90
61201;DHT22;47065;52.898;6.992;2024-03-23T10:48:34;6.30;99.90
61201;DHT22;47065;52.898;6.992;2024-03-23T10:51:00;6.20;99.90
61201;DHT22;47065;52.898;6.992;2024-03-23T10:53:28;6.20;99.90
61201;DHT22;47065;52.898;6.992;2024-03-23T10:55:55;6.20;99.90
61201;DHT22;47065;52.898;6.992;2024-03-23T10:58:28;6.40;99.90
61201;DHT22;47065;52.898;6.992;2024-03-23T11:00:54;6.60;99.90
61201;DHT22;47065;52.898;6.992;2024-03-23T11:03:36;6.90;99.90
61201;DHT22;47065;52.898;6.992;2024-03-23T11:06:03;7.30;99.90
61201;DHT22;47065;52.898;6.992;2024-03-23T11:08:47;7.60;99.90
61201;DHT22;47065;52.898;6.992;2024-03-23T11:11:18;8.00;99.90
61201;DHT22;47065;52.898;6.992;2024-03-23T11:13:47;8.30;99.90
61201;DHT22;47065;52.898;6.992;2024-03-23T11:16:16;8.60;99.90
61201;DHT22;47065;52.898;6.992;2024-03-23T11:18:43;8.80;99.90
61201;DHT22;47065;52.898;6.992;2024-03-23T11:21:10;9.00;99.90
61201;DHT22;47065;52.898;6.992;2024-03-23T11:23:36;9.20;99.90
61201;DHT22;47065;52.898;6.992;2024-03-23T11:26:02;9.40;99.90
61201;DHT22;47065;52.898;6.992;2024-03-23T11:28:28;9.60;99.90
61201;DHT22;47065;52.898;6.992;2024-03-23T11:30:53;9.60;99.90
61201;DHT22;47065;52.898;6.992;2024-03-23T11:33:19;9.40;99.90
61201;DHT22;47065;52.898;6.992;2024-03-23T11:35:45;9.10;99.90
61201;DHT22;47065;52.898;6.992;2024-03-23T11:38:15;8.80;99.90
61201;DHT22;47065;52.898;6.992;2024-03-23T11:40:47;8.60;99.90
61201;DHT22;47065;52.898;6.992;2024-03-23T11:43:18;8.30;99.90
61201;DHT22;47065;52.898;6.992;2024-03-23T11:45:48;8.10;99.90
61201;DHT22;47065;52.898;6.992;2024-03-23T11:48:17;7.90;99.90
61201;DHT22;47065;52.898;6.992;2024-03-23T11:50:47;7.70;99.90
61201;DHT22;47065;52.898;6.992;2024-03-23T11:53:21;7.50;99.90
61201;DHT22;47065;52.898;6.992;2024-03-23T11:55:56;7.40;99.90
61201;DHT22;47065;52.898;6.992;2024-03-23T11:58:23;7.20;99.90
61201;DHT22;47065;52.898;6.992;2024-03-23T12:00:57;7.10;99.90
61201;DHT22;47065;52.898;6.992;2024-03-23T12:03:24;7.10;99.90
61201;DHT22;47065;52.898;6.992;2024-03-23T12:05:57;7.10;99.90
61201;DHT22;47065;52.898;6.992;2024-03-23T12:11:13;7.50;99.90
61201;DHT22;47065;52.898;6.992;2024-03-23T12:13:40;7.80;99.90
61201;DHT22;47065;52.898;6.992;2024-03-23T12:16:16;8.00;99.90
61201;DHT22;47065;52.898;6.992;2024-03-23T12:18:44;8.20;99.90
61201;DHT22;47065;52.898;6.992;2024-03-23T12:21:10;8.40;99.90
61201;DHT22;47065;52.898;6.992;2024-03-23T12:23:38;8.60;99.90
61201;DHT22;47065;52.898;6.992;2024-03-23T12:26:04;8.70;99.90
61201;DHT22;47065;52.898;6.992;2024-03-23T12:28:29;8.80;99.90
61201;DHT22;47065;52.898;6.992;2024-03-23T12:30:55;8.90;99.90
61201;DHT22;47065;52.898;6.992;2024-03-23T12:33:21;9.10;99.90
61201;DHT22;47065;52.898;6.992;2024-03-23T12:35:50;9.20;99.90
61201;DHT22;47065;52.898;6.992;2024-03-23T12:38:17;9.40;99.90
61201;DHT22;47065;52.898;6.992;2024-03-23T12:40:47;9.50;99.90
61201;DHT22;47065;52.898;6.992;2024-03-23T12:43:15;9.20;99.90
61201;DHT22;47065;52.898;6.992;2024-03-23T12:45:46;8.90;99.90
61201;DHT22;47065;52.898;6.992;2024-03-23T12:48:12;8.60;99.90
61201;DHT22;47065;52.898;6.992;2024-03-23T12:50:37;8.30;99.90
61201;DHT22;47065;52.898;6.992;2024-03-23T12:53:03;8.20;99.90
61201;DHT22;47065;52.898;6.992;2024-03-23T12:55:29;8.00;99.90
61201;DHT22;47065;52.898;6.992;2024-03-23T12:57:54;7.80;99.90
61201;DHT22;47065;52.898;6.992;2024-03-23T13:00:20;7.80;99.90
61201;DHT22;47065;52.898;6.992;2024-03-23T13:02:46;7.80;99.90
61201;DHT22;47065;52.898;6.992;2024-03-23T13:05:11;7.90;99.90
61201;DHT22;47065;52.898;6.992;2024-03-23T13:07:37;8.00;99.90
61201;DHT22;47065;52.898;6.992;2024-03-23T13:10:04;8.20;99.90
61201;DHT22;47065;52.898;6.992;2024-03-23T13:12:30;8.30;99.90
61201;DHT22;47065;52.898;6.992;2024-03-23T13:14:56;8.40;99.90
61201;DHT22;47065;52.898;6.992;2024-03-23T13:17:22;8.50;99.90
61201;DHT22;47065;52.898;6.992;2024-03-23T13:19:47;8.40;99.90
61201;DHT22;47065;52.898;6.992;2024-03-23T13:22:13;8.40;99.90
61201;DHT22;47065;52.898;6.992;2024-03-23T13:24:39;8.40;99.90
61201;DHT22;47065;52.898;6.992;2024-03-23T13:27:04;8.50;99.90
61201;DHT22;47065;52.898;6.992;2024-03-23T13:29:33;8.60;99.90
61201;DHT22;47065;52.898;6.992;2024-03-23T13:32:00;8.70;99.90
61201;DHT22;47065;52.898;6.992;2024-03-23T13:34:25;8.80;99.90
61201;DHT22;47065;52.898;6.992;2024-03-23T13:36:51;8.80;99.90
61201;DHT22;47065;52.898;6.992;2024-03-23T13:39:17;8.80;99.90
61201;DHT22;47065;52.898;6.992;2024-03-23T13:41:43;8.70;99.90
61201;DHT22;47065;52.898;6.992;2024-03-23T13:44:10;8.60;99.90
61201;DHT22;47065;52.898;6.992;2024-03-23T13:46:37;8.40;99.90
61201;DHT22;47065;52.898;6.992;2024-03-23T13:49:03;8.30;99.90
61201;DHT22;47065;52.898;6.992;2024-03-23T13:51:29;8.30;99.90
61201;DHT22;47065;52.898;6.992;2024-03-23T13:53:55;8.40;99.90
61201;DHT22;47065;52.898;6.992;2024-03-23T13:56:24;8.60;99.90
61201;DHT22;47065;52.898;6.992;2024-03-23T13:58:50;8.80;99.90
61201;DHT22;47065;52.898;6.992;2024-03-23T14:01:16;8.90;99.90
61201;DHT22;47065;52.898;6.992;2024-03-23T14:03:43;8.90;99.90
61201;DHT22;47065;52.898;6.992;2024-03-23T14:06:09;8.80;99.90
61201;DHT22;47065;52.898;6.992;2024-03-23T14:08:36;8.70;99.90
61201;DHT22;47065;52.898;6.992;2024-03-23T14:11:05;8.80;99.90
61201;DHT22;47065;52.898;6.992;2024-03-23T14:13:31;8.80;99.90
61201;DHT22;47065;52.898;6.992;2024-03-23T14:15:58;8.80;99.90
61201;DHT22;47065;52.898;6.992;2024-03-23T14:18:24;9.00;99.90
61201;DHT22;47065;52.898;6.992;2024-03-23T14:20:50;9.10;99.90
61201;DHT22;47065;52.898;6.992;2024-03-23T14:23:16;9.20;99.90
61201;DHT22;47065;52.898;6.992;2024-03-23T14:25:42;9.20;99.90
61201;DHT22;47065;52.898;6.992;2024-03-23T14:28:08;9.00;99.90
61201;DHT22;47065;52.898;6.992;2024-03-23T14:30:40;8.80;99.90
61201;DHT22;47065;52.898;6.992;2024-03-23T14:33:05;8.50;99.90
61201;DHT22;47065;52.898;6.992;2024-03-23T14:35:31;8.20;99.90
61201;DHT22;47065;52.898;6.992;2024-03-23T14:37:58;7.80;99.90
61201;DHT22;47065;52.898;6.992;2024-03-23T14:40:24;7.60;99.90
61201;DHT22;47065;52.898;6.992;2024-03-23T14:42:53;7.40;99.90
61201;DHT22;47065;52.898;6.992;2024-03-23T14:45:20;7.30;99.90
61201;DHT22;47065;52.898;6.992;2024-03-23T14:47:46;7.20;99.90
61201;DHT22;47065;52.898;6.992;2024-03-23T14:50:12;7.30;99.90
61201;DHT22;47065;52.898;6.992;2024-03-23T14:52:41;7.30;99.90
61201;DHT22;47065;52.898;6.992;2024-03-23T14:55:07;7.50;99.90
61201;DHT22;47065;52.898;6.992;2024-03-23T14:57:34;7.60;99.90
61201;DHT22;47065;52.898;6.992;2024-03-23T15:00:00;7.60;99.90
61201;DHT22;47065;52.898;6.992;2024-03-23T15:02:26;7.70;99.90
61201;DHT22;47065;52.898;6.992;2024-03-23T15:04:54;7.60;99.90
61201;DHT22;47065;52.898;6.992;2024-03-23T15:07:19;7.60;99.90
61201;DHT22;47065;52.898;6.992;2024-03-23T15:09:45;7.60;99.90
61201;DHT22;47065;52.898;6.992;2024-03-23T15:12:10;7.50;99.90
61201;DHT22;47065;52.898;6.992;2024-03-23T15:14:37;7.50;99.90
61201;DHT22;47065;52.898;6.992;2024-03-23T15:17:03;7.50;99.90
61201;DHT22;47065;52.898;6.992;2024-03-23T15:19:32;7.50;99.90
61201;DHT22;47065;52.898;6.992;2024-03-23T15:21:58;7.60;99.90
61201;DHT22;47065;52.898;6.992;2024-03-23T15:24:24;7.60;99.90
61201;DHT22;47065;52.898;6.992;2024-03-23T15:26:51;7.60;99.90
61201;DHT22;47065;52.898;6.992;2024-03-23T15:29:17;7.60;99.90
61201;DHT22;47065;52.898;6.992;2024-03-23T15:31:43;7.60;99.90
61201;DHT22;47065;52.898;6.992;2024-03-23T15:34:09;7.60;99.90
61201;DHT22;47065;52.898;6.992;2024-03-23T15:36:38;7.60;99.90
61201;DHT22;47065;52.898;6.992;2024-03-23T15:39:06;7.50;99.90
61201;DHT22;47065;52.898;6.992;2024-03-23T15:41:32;7.50;99.90
61201;DHT22;47065;52.898;6.992;2024-03-23T15:43:59;7.50;99.90
61201;DHT22;47065;52.898;6.992;2024-03-23T15:46:25;7.50;99.90
61201;DHT22;47065;52.898;6.992;2024-03-23T15:48:50;7.60;99.90
61201;DHT22;47065;52.898;6.992;2024-03-23T15:51:16;7.60;99.90
61201;DHT22;47065;52.898;6.992;2024-03-23T15:53:43;7.60;99.90
61201;DHT22;47065;52.898;6.992;2024-03-23T15:56:09;7.60;99.90
61201;DHT22;47065;52.898;6.992;2024-03-23T15:58:35;7.60;99.90
61201;DHT22;47065;52.898;6.992;2024-03-23T16:01:05;7.60;99.90
61201;DHT22;47065;52.898;6.992;2024-03-23T16:03:32;7.60;99.90
61201;DHT22;47065;52.898;6.992;2024-03-23T16:06:03;7.60;99.90
61201;DHT22;47065;52.898;6.992;2024-03-23T16:08:30;7.60;99.90
61201;DHT22;47065;52.898;6.992;2024-03-23T16:11:00;7.60;99.90
61201;DHT22;47065;52.898;6.992;2024-03-23T16:13:26;7.70;99.90
61201;DHT22;47065;52.898;6.992;2024-03-23T16:16:03;7.70;99.90
61201;DHT22;47065;52.898;6.992;2024-03-23T16:18:29;7.70;99.90
61201;DHT22;47065;52.898;6.992;2024-03-23T16:20:56;7.60;99.90
61201;DHT22;47065;52.898;6.992;2024-03-23T16:23:22;7.60;99.90
61201;DHT22;47065;52.898;6.992;2024-03-23T16:25:49;7.50;99.90
61201;DHT22;47065;52.898;6.992;2024-03-23T16:28:31;7.50;99.90
61201;DHT22;47065;52.898;6.992;2024-03-23T16:30:58;7.50;99.90
61201;DHT22;47065;52.898;6.992;2024-03-23T16:33:24;7.50;99.90
61201;DHT22;47065;52.898;6.992;2024-03-23T16:35:57;7.40;99.90
61201;DHT22;47065;52.898;6.992;2024-03-23T16:38:23;7.50;99.90
61201;DHT22;47065;52.898;6.992;2024-03-23T16:40:59;7.50;99.90
61201;DHT22;47065;52.898;6.992;2024-03-23T16:43:25;7.50;99.90